Accueil
METAR-TAF:

METAR-TAF

Aéroports :

Aéroport international OR Tambo

Johannesburg, Afrique du Sud

latitude: 26-08S, longitude: 028-14E, altitude: 1694 m

Observation

Le bulletin a été fait il y a 14 minutes, à 07:30 UTC
Vent 8 kt de sud/sud-est, variant entre sud-est et ouest/sud-ouest
Température 15°C
Humidité 39%
Pression 1029 hPa
Visibilité 10 km ou plus
pas de nuages en-dessous de 1500 mètres et pas de cumulonimbus.

METAR: FAOR 300730Z 16008KT 140V240 CAVOK 15/01 Q1029 NOSIG

Heure: 09:44 (07:44 UTC)

Prévision

Le bulletin a été fait il y a 3 heures et 44 minutes, à 04:00 UTC
Prévision valable du 30 à 06 UTC au 31 à 12 UTC
Vent 3 kt de direction variable
Visibilité 10 km ou plus
pas de nuages en-dessous de 1500 mètres et pas de cumulonimbus.

TAF: FAOR 300400Z 3006/3112 VRB03KT CAVOK TX20/3013Z TN07/3104Z

Observations et prévisions météorologiques de plus de 4000 aéroports (messages METAR et TAF).

Les stations disponibles sont représentées par des disques jaunes et rouges sur la carte.

Passer la souris dessus pour voir le nom de la station.

Cliquer dessus pour voir les observations et prévisions météorologiques.

Pour changer de carte: cliquez sur les boutons verts avec une croix noire pour zoomer, sur le bouton vert avec un tiret pour effectuer un zoom arrière, ou sur les flèches vertes pour les cartes adjacentes.


METAR-TAF: